sensor_id;sensor_type;location;lat;lon;timestamp;temperature;humidity
43541;DHT22;29549;40.386;-3.710;2022-12-08T00:05:02;10.20;79.60
43541;DHT22;29549;40.386;-3.710;2022-12-08T00:15:22;10.30;79.30
43541;DHT22;29549;40.386;-3.710;2022-12-08T00:25:24;10.20;79.70
43541;DHT22;29549;40.386;-3.710;2022-12-08T00:35:25;10.20;79.70
43541;DHT22;29549;40.386;-3.710;2022-12-08T00:45:28;10.20;79.80
43541;DHT22;29549;40.386;-3.710;2022-12-08T00:55:30;10.20;79.80
43541;DHT22;29549;40.386;-3.710;2022-12-08T01:05:31;10.20;79.80
43541;DHT22;29549;40.386;-3.710;2022-12-08T01:15:34;10.20;79.80
43541;DHT22;29549;40.386;-3.710;2022-12-08T01:25:35;10.20;80.00
43541;DHT22;29549;40.386;-3.710;2022-12-08T01:35:37;10.30;79.60
43541;DHT22;29549;40.386;-3.710;2022-12-08T01:45:41;10.30;80.20
43541;DHT22;29549;40.386;-3.710;2022-12-08T01:55:48;10.30;80.20
43541;DHT22;29549;40.386;-3.710;2022-12-08T02:05:51;10.30;80.10
43541;DHT22;29549;40.386;-3.710;2022-12-08T02:37:11;10.40;80.60
43541;DHT22;29549;40.386;-3.710;2022-12-08T02:47:22;10.70;81.20
43541;DHT22;29549;40.386;-3.710;2022-12-08T03:18:12;11.00;80.90
43541;DHT22;29549;40.386;-3.710;2022-12-08T03:28:17;11.00;80.40
43541;DHT22;29549;40.386;-3.710;2022-12-08T03:38:21;11.00;79.90
43541;DHT22;29549;40.386;-3.710;2022-12-08T03:48:23;11.00;79.90
43541;DHT22;29549;40.386;-3.710;2022-12-08T03:58:26;11.00;80.50
43541;DHT22;29549;40.386;-3.710;2022-12-08T04:08:28;10.80;81.70
43541;DHT22;29549;40.386;-3.710;2022-12-08T04:18:31;10.70;82.30
43541;DHT22;29549;40.386;-3.710;2022-12-08T04:28:34;10.70;82.70
43541;DHT22;29549;40.386;-3.710;2022-12-08T04:38:36;10.70;82.60
43541;DHT22;29549;40.386;-3.710;2022-12-08T04:48:48;10.60;82.90
43541;DHT22;29549;40.386;-3.710;2022-12-08T04:58:51;10.60;82.90
43541;DHT22;29549;40.386;-3.710;2022-12-08T05:08:54;10.60;82.90
43541;DHT22;29549;40.386;-3.710;2022-12-08T05:18:56;10.60;82.60
43541;DHT22;29549;40.386;-3.710;2022-12-08T05:28:58;10.70;82.10
43541;DHT22;29549;40.386;-3.710;2022-12-08T05:39:00;10.60;82.10
43541;DHT22;29549;40.386;-3.710;2022-12-08T05:49:21;10.70;82.10
43541;DHT22;29549;40.386;-3.710;2022-12-08T05:59:39;10.60;82.00
43541;DHT22;29549;40.386;-3.710;2022-12-08T06:09:45;10.60;82.10
43541;DHT22;29549;40.386;-3.710;2022-12-08T06:19:48;10.50;82.20
43541;DHT22;29549;40.386;-3.710;2022-12-08T06:29:51;10.60;82.20
43541;DHT22;29549;40.386;-3.710;2022-12-08T06:39:53;10.60;82.30
43541;DHT22;29549;40.386;-3.710;2022-12-08T06:49:54;10.60;82.60
43541;DHT22;29549;40.386;-3.710;2022-12-08T06:59:56;10.60;82.90
43541;DHT22;29549;40.386;-3.710;2022-12-08T07:09:58;10.60;82.80
43541;DHT22;29549;40.386;-3.710;2022-12-08T07:20:00;10.60;82.80
43541;DHT22;29549;40.386;-3.710;2022-12-08T07:30:02;10.60;83.00
43541;DHT22;29549;40.386;-3.710;2022-12-08T07:40:06;10.50;83.30
43541;DHT22;29549;40.386;-3.710;2022-12-08T07:50:08;10.50;83.50
43541;DHT22;29549;40.386;-3.710;2022-12-08T08:00:10;10.50;83.60
43541;DHT22;29549;40.386;-3.710;2022-12-08T08:10:12;10.50;83.60
43541;DHT22;29549;40.386;-3.710;2022-12-08T08:20:14;10.60;83.60
43541;DHT22;29549;40.386;-3.710;2022-12-08T08:30:16;10.60;83.70
43541;DHT22;29549;40.386;-3.710;2022-12-08T08:40:18;10.50;84.00
43541;DHT22;29549;40.386;-3.710;2022-12-08T08:50:19;10.60;84.40
43541;DHT22;29549;40.386;-3.710;2022-12-08T09:00:21;10.50;84.60
43541;DHT22;29549;40.386;-3.710;2022-12-08T09:10:23;10.50;85.00
43541;DHT22;29549;40.386;-3.710;2022-12-08T09:20:25;10.80;84.30
43541;DHT22;29549;40.386;-3.710;2022-12-08T09:30:26;10.90;85.10
43541;DHT22;29549;40.386;-3.710;2022-12-08T09:40:29;11.90;81.80
43541;DHT22;29549;40.386;-3.710;2022-12-08T10:00:56;11.20;85.00
43541;DHT22;29549;40.386;-3.710;2022-12-08T10:11:07;11.30;85.30
43541;DHT22;29549;40.386;-3.710;2022-12-08T10:21:18;11.20;85.80
43541;DHT22;29549;40.386;-3.710;2022-12-08T10:31:23;11.30;86.00
43541;DHT22;29549;40.386;-3.710;2022-12-08T10:41:25;11.30;86.40
43541;DHT22;29549;40.386;-3.710;2022-12-08T11:01:38;11.90;85.20
43541;DHT22;29549;40.386;-3.710;2022-12-08T11:11:54;12.30;84.20
43541;DHT22;29549;40.386;-3.710;2022-12-08T11:21:57;12.30;84.20
43541;DHT22;29549;40.386;-3.710;2022-12-08T11:32:07;12.60;83.30
43541;DHT22;29549;40.386;-3.710;2022-12-08T11:42:14;12.30;84.20
43541;DHT22;29549;40.386;-3.710;2022-12-08T12:02:32;12.30;85.00
43541;DHT22;29549;40.386;-3.710;2022-12-08T12:22:56;12.40;85.50
43541;DHT22;29549;40.386;-3.710;2022-12-08T12:33:01;12.70;85.30
43541;DHT22;29549;40.386;-3.710;2022-12-08T13:03:18;13.20;83.20
43541;DHT22;29549;40.386;-3.710;2022-12-08T13:13:20;14.10;83.10
43541;DHT22;29549;40.386;-3.710;2022-12-08T13:33:39;13.70;81.20
43541;DHT22;29549;40.386;-3.710;2022-12-08T13:43:47;13.70;81.30
43541;DHT22;29549;40.386;-3.710;2022-12-08T13:54:06;13.70;81.90
43541;DHT22;29549;40.386;-3.710;2022-12-08T14:04:17;13.70;81.60
43541;DHT22;29549;40.386;-3.710;2022-12-08T14:14:21;13.70;82.10
43541;DHT22;29549;40.386;-3.710;2022-12-08T14:24:27;13.70;81.90
43541;DHT22;29549;40.386;-3.710;2022-12-08T14:34:29;13.70;81.70
43541;DHT22;29549;40.386;-3.710;2022-12-08T14:44:32;13.70;82.20
43541;DHT22;29549;40.386;-3.710;2022-12-08T14:54:35;13.70;82.10
43541;DHT22;29549;40.386;-3.710;2022-12-08T15:04:39;13.70;82.30
43541;DHT22;29549;40.386;-3.710;2022-12-08T15:25:24;13.70;83.20
43541;DHT22;29549;40.386;-3.710;2022-12-08T15:35:26;13.70;83.60
43541;DHT22;29549;40.386;-3.710;2022-12-08T15:45:30;13.60;83.70
43541;DHT22;29549;40.386;-3.710;2022-12-08T15:55:33;13.60;84.00
43541;DHT22;29549;40.386;-3.710;2022-12-08T16:05:35;13.50;84.00
43541;DHT22;29549;40.386;-3.710;2022-12-08T16:15:40;13.50;84.30
43541;DHT22;29549;40.386;-3.710;2022-12-08T16:25:42;13.40;84.60
43541;DHT22;29549;40.386;-3.710;2022-12-08T16:35:44;13.30;83.90
43541;DHT22;29549;40.386;-3.710;2022-12-08T16:45:46;13.20;84.10
43541;DHT22;29549;40.386;-3.710;2022-12-08T16:55:48;13.10;83.80
43541;DHT22;29549;40.386;-3.710;2022-12-08T17:05:50;12.90;84.00
43541;DHT22;29549;40.386;-3.710;2022-12-08T17:15:52;12.80;84.40
43541;DHT22;29549;40.386;-3.710;2022-12-08T17:26:01;12.70;85.00
43541;DHT22;29549;40.386;-3.710;2022-12-08T17:36:02;12.70;85.60
43541;DHT22;29549;40.386;-3.710;2022-12-08T17:46:04;12.70;84.70
43541;DHT22;29549;40.386;-3.710;2022-12-08T17:56:19;12.60;84.40
43541;DHT22;29549;40.386;-3.710;2022-12-08T18:06:21;12.70;83.40
43541;DHT22;29549;40.386;-3.710;2022-12-08T18:16:25;12.60;83.30
43541;DHT22;29549;40.386;-3.710;2022-12-08T18:26:27;12.50;83.20
43541;DHT22;29549;40.386;-3.710;2022-12-08T18:36:29;12.40;83.20
43541;DHT22;29549;40.386;-3.710;2022-12-08T18:46:30;12.30;83.00
43541;DHT22;29549;40.386;-3.710;2022-12-08T18:56:33;12.30;83.30
43541;DHT22;29549;40.386;-3.710;2022-12-08T19:06:38;12.20;83.50
43541;DHT22;29549;40.386;-3.710;2022-12-08T19:16:40;12.20;83.60
43541;DHT22;29549;40.386;-3.710;2022-12-08T19:26:42;12.10;83.60
43541;DHT22;29549;40.386;-3.710;2022-12-08T19:36:43;12.10;83.70
43541;DHT22;29549;40.386;-3.710;2022-12-08T19:46:45;12.00;83.60
43541;DHT22;29549;40.386;-3.710;2022-12-08T19:56:46;12.00;83.70
43541;DHT22;29549;40.386;-3.710;2022-12-08T20:06:49;11.80;83.80
43541;DHT22;29549;40.386;-3.710;2022-12-08T20:16:51;11.80;84.00
43541;DHT22;29549;40.386;-3.710;2022-12-08T20:26:53;11.80;83.90
43541;DHT22;29549;40.386;-3.710;2022-12-08T20:36:55;11.70;83.80
43541;DHT22;29549;40.386;-3.710;2022-12-08T20:46:57;11.70;83.80
43541;DHT22;29549;40.386;-3.710;2022-12-08T20:56:59;11.70;83.80
43541;DHT22;29549;40.386;-3.710;2022-12-08T21:07:02;11.70;83.90
43541;DHT22;29549;40.386;-3.710;2022-12-08T21:17:04;11.70;84.30
43541;DHT22;29549;40.386;-3.710;2022-12-08T21:27:08;11.70;84.40
43541;DHT22;29549;40.386;-3.710;2022-12-08T21:37:10;11.70;84.70
43541;DHT22;29549;40.386;-3.710;2022-12-08T21:47:12;11.80;84.40
43541;DHT22;29549;40.386;-3.710;2022-12-08T21:57:14;11.80;83.80
43541;DHT22;29549;40.386;-3.710;2022-12-08T22:07:17;11.80;83.50
43541;DHT22;29549;40.386;-3.710;2022-12-08T22:17:19;11.80;83.60
43541;DHT22;29549;40.386;-3.710;2022-12-08T22:27:21;11.70;83.90
43541;DHT22;29549;40.386;-3.710;2022-12-08T22:37:23;11.70;84.00
43541;DHT22;29549;40.386;-3.710;2022-12-08T22:47:25;11.70;83.80
43541;DHT22;29549;40.386;-3.710;2022-12-08T22:57:27;11.60;84.30
43541;DHT22;29549;40.386;-3.710;2022-12-08T23:07:29;11.60;84.10
43541;DHT22;29549;40.386;-3.710;2022-12-08T23:17:35;11.50;84.00
43541;DHT22;29549;40.386;-3.710;2022-12-08T23:27:41;11.50;83.90
43541;DHT22;29549;40.386;-3.710;2022-12-08T23:37:43;11.60;84.00
43541;DHT22;29549;40.386;-3.710;2022-12-08T23:47:45;11.60;83.70
43541;DHT22;29549;40.386;-3.710;2022-12-08T23:57:48;11.50;83.70
